createdAt,value
2022-10-22T00:00:27.471Z,4.05
2022-10-22T00:03:29.261Z,4.38
2022-10-22T00:06:31.146Z,3.97
2022-10-22T00:09:33.029Z,3.83
2022-10-22T00:12:35.104Z,3.90
2022-10-22T00:15:37.057Z,4.00
2022-10-22T00:18:39.691Z,4.18
2022-10-22T00:21:41.557Z,4.03
2022-10-22T00:24:43.499Z,4.15
2022-10-22T00:27:45.425Z,4.30
2022-10-22T00:30:47.773Z,3.95
2022-10-22T00:33:49.792Z,4.38
2022-10-22T00:36:52.691Z,4.15
2022-10-22T00:39:54.563Z,4.93
2022-10-22T00:42:56.635Z,4.65
2022-10-22T00:45:58.356Z,4.18
2022-10-22T00:49:05.025Z,4.13
2022-10-22T00:52:07.104Z,4.38
2022-10-22T00:55:09.839Z,4.10
2022-10-22T00:58:13.747Z,4.03
2022-10-22T01:01:21.636Z,3.60
2022-10-22T01:04:23.725Z,3.75
2022-10-22T01:07:26.704Z,3.95
2022-10-22T01:10:43.819Z,4.00
2022-10-22T01:14:07.667Z,3.78
2022-10-22T01:20:59.197Z,3.95
2022-10-22T01:24:12.505Z,3.72
2022-10-22T01:27:33.771Z,4.13
2022-10-22T01:30:37.368Z,4.40
2022-10-22T01:33:40.804Z,3.55
2022-10-22T01:36:43.911Z,3.70
2022-10-22T01:39:48.380Z,3.58
2022-10-22T01:43:02.545Z,3.35
2022-10-22T01:46:06.592Z,3.47
2022-10-22T01:49:23.431Z,3.50
2022-10-22T01:52:54.530Z,3.05
2022-10-22T01:56:21.712Z,2.92
2022-10-22T01:59:48.563Z,3.40
2022-10-22T02:03:23.003Z,3.13
2022-10-22T02:06:32.419Z,2.88
2022-10-22T02:09:36.022Z,3.10
2022-10-22T02:12:39.412Z,2.90
2022-10-22T02:15:45.652Z,3.05
2022-10-22T02:18:52.927Z,3.70
2022-10-22T02:21:55.282Z,3.45
2022-10-22T02:24:57.070Z,3.53
2022-10-22T02:28:08.285Z,3.72
2022-10-22T02:31:26.144Z,3.95
2022-10-22T02:34:31.751Z,3.90
2022-10-22T02:37:34.183Z,4.30
2022-10-22T02:40:36.081Z,4.78
2022-10-22T02:43:48.731Z,4.63
2022-10-22T02:46:51.472Z,4.53
2022-10-22T02:49:53.221Z,4.35
2022-10-22T02:52:55.184Z,4.30
2022-10-22T02:55:57.040Z,4.20
2022-10-22T02:58:58.764Z,3.97
2022-10-22T03:02:00.558Z,3.67
2022-10-22T03:05:02.554Z,3.50
2022-10-22T03:08:04.626Z,3.78
2022-10-22T03:11:06.515Z,3.75
2022-10-22T03:14:08.377Z,3.80
2022-10-22T03:17:10.466Z,3.65
2022-10-22T03:20:12.175Z,3.53
2022-10-22T03:23:17.858Z,3.90
2022-10-22T03:26:20.444Z,3.90
2022-10-22T03:29:26.259Z,3.80
2022-10-22T03:32:28.262Z,4.00
2022-10-22T03:35:31.673Z,4.20
2022-10-22T03:38:35.781Z,4.05
2022-10-22T03:41:37.749Z,3.85
2022-10-22T03:44:40.729Z,4.50
2022-10-22T03:47:44.868Z,3.83
2022-10-22T03:50:46.734Z,3.90
2022-10-22T03:53:48.699Z,4.07
2022-10-22T03:56:50.676Z,4.22
2022-10-22T03:59:52.480Z,4.68
2022-10-22T04:02:54.410Z,4.47
2022-10-22T04:06:04.666Z,4.53
2022-10-22T04:09:06.526Z,3.80
2022-10-22T04:12:09.485Z,4.03
2022-10-22T04:15:11.258Z,3.90
2022-10-22T04:18:13.416Z,3.72
2022-10-22T04:21:17.274Z,3.53
2022-10-22T04:24:19.077Z,3.60
2022-10-22T04:27:20.971Z,3.65
2022-10-22T04:30:22.808Z,4.13
2022-10-22T04:33:24.716Z,3.92
2022-10-22T04:36:28.579Z,3.72
2022-10-22T04:39:30.998Z,3.90
2022-10-22T04:42:32.944Z,4.00
2022-10-22T04:45:36.039Z,4.75
2022-10-22T04:48:45.651Z,3.97
2022-10-22T04:51:47.663Z,4.72
2022-10-22T04:54:49.513Z,3.90
2022-10-22T04:57:51.397Z,3.67
2022-10-22T05:00:53.221Z,3.90
2022-10-22T05:03:57.572Z,3.28
2022-10-22T05:06:59.351Z,3.00
2022-10-22T05:10:02.312Z,3.33
2022-10-22T05:13:04.068Z,3.13
2022-10-22T05:16:06.472Z,3.90
2022-10-22T05:19:08.684Z,3.33
2022-10-22T05:22:10.448Z,3.00
2022-10-22T05:25:12.547Z,3.15
2022-10-22T05:28:14.604Z,3.03
2022-10-22T05:31:17.639Z,3.17
2022-10-22T05:34:19.592Z,3.30
2022-10-22T05:37:21.506Z,3.30
2022-10-22T05:40:30.560Z,3.25
2022-10-22T05:43:33.700Z,3.10
2022-10-22T05:46:36.331Z,3.80
2022-10-22T05:49:38.095Z,3.15
2022-10-22T05:52:40.321Z,3.08
2022-10-22T05:55:42.774Z,3.45
2022-10-22T05:58:45.669Z,3.60
2022-10-22T06:01:47.693Z,2.95
2022-10-22T06:04:49.527Z,3.17
2022-10-22T06:07:51.500Z,3.70
2022-10-22T06:10:53.406Z,4.00
2022-10-22T06:13:55.200Z,4.18
2022-10-22T06:17:00.025Z,4.40
2022-10-22T06:20:02.271Z,4.57
2022-10-22T06:23:05.042Z,5.32
2022-10-22T06:26:07.572Z,5.25
2022-10-22T06:29:11.138Z,5.35
2022-10-22T06:32:12.857Z,4.40
2022-10-22T06:35:14.951Z,5.57
2022-10-22T06:38:16.966Z,5.18
2022-10-22T06:41:20.786Z,5.13
2022-10-22T06:44:24.840Z,5.10
2022-10-22T06:47:26.511Z,4.63
2022-10-22T06:50:28.400Z,4.80
2022-10-22T06:53:30.949Z,4.80
2022-10-22T06:56:32.845Z,7.00
2022-10-22T06:59:34.619Z,5.55
2022-10-22T07:02:36.394Z,5.35
2022-10-22T07:05:38.216Z,4.90
2022-10-22T07:08:41.161Z,4.78
2022-10-22T07:11:45.897Z,4.95
2022-10-22T07:14:49.171Z,4.85
2022-10-22T07:17:51.754Z,4.55
2022-10-22T07:20:53.599Z,4.47
2022-10-22T07:23:55.604Z,5.10
2022-10-22T07:26:57.775Z,4.07
2022-10-22T07:30:04.088Z,4.15
2022-10-22T07:33:06.433Z,4.50
2022-10-22T07:36:11.600Z,4.30
2022-10-22T07:39:13.319Z,4.10
2022-10-22T07:42:15.135Z,4.55
2022-10-22T07:45:17.042Z,3.65
2022-10-22T07:48:18.955Z,6.60
2022-10-22T07:51:21.079Z,3.90
2022-10-22T07:54:23.556Z,4.22
2022-10-22T07:57:25.445Z,3.90
2022-10-22T08:00:27.560Z,3.80
2022-10-22T08:03:30.450Z,4.03
2022-10-22T08:06:32.401Z,3.88
2022-10-22T08:09:34.372Z,4.05
2022-10-22T08:12:37.057Z,4.22
2022-10-22T08:15:39.478Z,4.40
2022-10-22T08:18:41.700Z,4.53
2022-10-22T08:21:43.915Z,4.70
2022-10-22T08:24:45.872Z,4.25
2022-10-22T08:27:47.576Z,3.55
2022-10-22T08:30:49.910Z,4.00
2022-10-22T08:33:51.825Z,3.97
2022-10-22T08:36:53.871Z,3.88
2022-10-22T08:39:55.719Z,3.60
2022-10-22T08:43:34.895Z,3.42
2022-10-22T08:47:04.405Z,3.10
2022-10-22T08:50:09.412Z,3.60
2022-10-22T08:53:23.095Z,3.58
2022-10-22T08:56:25.003Z,3.65
2022-10-22T08:59:37.843Z,3.58
2022-10-22T09:03:10.069Z,3.60
2022-10-22T09:06:16.838Z,4.45
2022-10-22T09:09:20.471Z,3.70
2022-10-22T09:12:24.707Z,4.28
2022-10-22T09:15:27.185Z,4.43
2022-10-22T09:19:10.946Z,4.40
2022-10-22T09:22:27.913Z,3.95
2022-10-22T09:25:35.170Z,4.22
2022-10-22T09:28:37.164Z,4.20
2022-10-22T09:31:39.136Z,4.00
2022-10-22T09:34:43.784Z,4.00
2022-10-22T09:37:56.079Z,4.03
2022-10-22T09:41:00.534Z,4.45
2022-10-22T09:44:07.171Z,3.60
2022-10-22T09:47:42.855Z,3.83
2022-10-22T09:50:55.101Z,3.75
2022-10-22T09:54:00.279Z,3.83
2022-10-22T09:57:18.087Z,3.38
2022-10-22T10:00:20.903Z,3.50
2022-10-22T10:03:28.951Z,3.08
2022-10-22T10:06:33.331Z,3.30
2022-10-22T10:09:36.010Z,3.13
2022-10-22T10:12:48.391Z,4.28
2022-10-22T10:16:02.996Z,3.08
2022-10-22T10:19:04.861Z,3.67
2022-10-22T10:22:22.346Z,3.83
2022-10-22T10:25:54.034Z,3.55
2022-10-22T10:29:17.080Z,3.25
2022-10-22T10:33:04.184Z,3.53
2022-10-22T10:36:27.666Z,2.88
2022-10-22T10:39:31.830Z,3.42
2022-10-22T10:42:56.613Z,3.53
2022-10-22T10:46:04.553Z,3.70
2022-10-22T10:49:11.052Z,3.50
2022-10-22T10:52:31.428Z,3.63
2022-10-22T10:55:40.928Z,3.47
2022-10-22T10:59:01.436Z,3.28
2022-10-22T11:02:41.606Z,3.13
2022-10-22T11:05:58.190Z,3.28
2022-10-22T11:09:07.605Z,3.15
2022-10-22T11:12:22.613Z,3.20
2022-10-22T11:15:39.527Z,3.45
2022-10-22T11:19:04.258Z,3.30
2022-10-22T11:22:37.024Z,3.10
2022-10-22T11:25:44.628Z,3.13
2022-10-22T11:28:52.444Z,2.92
2022-10-22T11:31:56.103Z,2.70
2022-10-22T11:35:06.188Z,2.80
2022-10-22T11:38:14.667Z,2.80
2022-10-22T11:41:19.352Z,2.60
2022-10-22T11:44:23.964Z,2.65
2022-10-22T11:47:34.897Z,2.17
2022-10-22T11:51:01.874Z,2.22
2022-10-22T11:54:43.030Z,1.83
2022-10-22T11:57:45.214Z,2.05
2022-10-22T12:00:49.156Z,2.08
2022-10-22T12:03:58.604Z,1.95
2022-10-22T12:07:02.112Z,2.08
2022-10-22T12:10:51.407Z,2.28
2022-10-22T12:14:01.834Z,2.03
2022-10-22T12:17:10.473Z,1.95
2022-10-22T12:20:14.835Z,2.20
2022-10-22T12:23:25.189Z,2.53
2022-10-22T12:29:37.452Z,1.90
2022-10-22T12:32:43.052Z,2.50
2022-10-22T12:35:47.014Z,2.10
2022-10-22T12:38:48.744Z,2.00
2022-10-22T12:41:53.532Z,2.33
2022-10-22T12:44:56.727Z,2.20
2022-10-22T12:48:01.577Z,2.08
2022-10-22T12:51:08.127Z,2.35
2022-10-22T12:54:18.225Z,1.73
2022-10-22T12:57:21.652Z,1.98
2022-10-22T13:00:32.905Z,1.83
2022-10-22T13:03:41.031Z,1.50
2022-10-22T13:06:48.354Z,1.77
2022-10-22T13:09:56.357Z,1.80
2022-10-22T13:13:08.144Z,1.75
2022-10-22T13:16:14.507Z,1.98
2022-10-22T13:19:41.641Z,1.70
2022-10-22T13:23:23.960Z,2.28
2022-10-22T13:26:36.003Z,1.70
2022-10-22T13:29:45.078Z,2.53
2022-10-22T13:32:52.779Z,2.22
2022-10-22T13:36:00.930Z,2.00
2022-10-22T13:39:03.868Z,1.55
2022-10-22T13:42:12.706Z,2.00
2022-10-22T13:45:18.106Z,2.03
2022-10-22T13:48:22.321Z,1.60
2022-10-22T13:51:32.392Z,1.90
2022-10-22T13:54:37.914Z,1.50
2022-10-22T13:57:42.141Z,1.70
2022-10-22T14:00:47.219Z,2.08
2022-10-22T14:03:58.434Z,1.80
2022-10-22T14:07:03.720Z,1.83
2022-10-22T14:10:26.481Z,2.15
2022-10-22T14:13:28.539Z,1.63
2022-10-22T14:16:35.188Z,2.30
2022-10-22T14:19:37.340Z,2.05
2022-10-22T14:22:39.417Z,2.85
2022-10-22T14:25:45.836Z,2.10
2022-10-22T14:29:08.714Z,2.22
2022-10-22T14:32:16.405Z,2.30
2022-10-22T14:35:21.390Z,1.90
2022-10-22T14:38:23.863Z,2.08
2022-10-22T14:41:32.698Z,2.00
2022-10-22T14:44:34.910Z,2.00
2022-10-22T14:47:36.911Z,1.65
2022-10-22T14:50:38.759Z,1.70
2022-10-22T14:53:41.594Z,1.88
2022-10-22T14:56:46.237Z,1.90
2022-10-22T14:59:48.344Z,1.80
2022-10-22T15:02:50.572Z,1.60
2022-10-22T15:05:54.296Z,1.85
2022-10-22T15:08:56.451Z,1.80
2022-10-22T15:12:01.419Z,2.05
2022-10-22T15:15:03.620Z,1.40
2022-10-22T15:18:05.312Z,1.60
2022-10-22T15:21:14.199Z,1.33
2022-10-22T15:24:17.008Z,1.40
2022-10-22T15:27:20.021Z,1.65
2022-10-22T15:30:22.012Z,1.60
2022-10-22T15:33:24.525Z,1.52
2022-10-22T15:36:26.814Z,1.55
2022-10-22T15:39:30.329Z,1.20
2022-10-22T15:42:32.580Z,1.50
2022-10-22T15:45:34.523Z,1.38
2022-10-22T15:48:36.734Z,1.75
2022-10-22T15:51:38.753Z,1.48
2022-10-22T15:54:43.616Z,1.40
2022-10-22T15:57:46.337Z,1.70
2022-10-22T16:00:48.342Z,2.15
2022-10-22T16:04:00.322Z,1.27
2022-10-22T16:07:02.107Z,1.70
2022-10-22T16:10:04.934Z,1.35
2022-10-22T16:13:06.828Z,1.77
2022-10-22T16:16:09.036Z,1.73
2022-10-22T16:19:15.763Z,1.60
2022-10-22T16:22:17.840Z,1.48
2022-10-22T16:25:19.680Z,1.80
2022-10-22T16:28:24.022Z,1.40
2022-10-22T16:31:26.241Z,1.90
2022-10-22T16:34:30.899Z,1.63
2022-10-22T16:37:39.842Z,1.50
2022-10-22T16:40:45.631Z,1.58
2022-10-22T16:43:49.811Z,1.63
2022-10-22T16:46:53.984Z,1.65
2022-10-22T16:49:55.950Z,1.60
2022-10-22T16:52:57.542Z,1.80
2022-10-22T16:55:59.612Z,1.98
2022-10-22T16:59:01.552Z,1.48
2022-10-22T17:05:09.962Z,1.60
2022-10-22T17:08:14.464Z,1.85
2022-10-22T17:11:19.380Z,1.90
2022-10-22T17:14:24.571Z,1.90
2022-10-22T17:17:29.910Z,2.05
2022-10-22T17:20:32.117Z,1.80
2022-10-22T17:23:36.903Z,2.00
2022-10-22T17:26:41.838Z,1.88
2022-10-22T17:29:43.952Z,1.90
2022-10-22T17:32:48.741Z,1.73
2022-10-22T17:35:52.699Z,1.95
2022-10-22T17:38:58.952Z,1.80
2022-10-22T17:42:03.999Z,2.30
2022-10-22T17:45:06.435Z,1.95
2022-10-22T17:48:08.563Z,1.85
2022-10-22T17:51:11.917Z,2.13
2022-10-22T17:54:18.454Z,1.85
2022-10-22T17:57:22.685Z,1.92
2022-10-22T18:00:24.550Z,1.70
2022-10-22T18:03:27.925Z,2.03
2022-10-22T18:06:32.916Z,1.92
2022-10-22T18:09:35.158Z,2.00
2022-10-22T18:12:37.458Z,1.75
2022-10-22T18:15:39.318Z,1.95
2022-10-22T18:18:41.595Z,1.92
2022-10-22T18:21:43.228Z,2.05
2022-10-22T18:24:45.036Z,1.88
2022-10-22T18:27:48.027Z,2.17
2022-10-22T18:30:50.430Z,1.83
2022-10-22T18:33:56.169Z,1.90
2022-10-22T18:37:01.841Z,1.92
2022-10-22T18:40:08.139Z,1.80
2022-10-22T18:43:12.774Z,1.80
2022-10-22T18:46:14.503Z,1.70
2022-10-22T18:49:20.026Z,1.50
2022-10-22T18:52:24.827Z,1.60
2022-10-22T18:55:31.964Z,1.90
2022-10-22T18:58:45.181Z,2.08
2022-10-22T19:01:47.023Z,2.03
2022-10-22T19:04:48.893Z,1.73
2022-10-22T19:07:51.118Z,1.85
2022-10-22T19:10:55.451Z,1.70
2022-10-22T19:14:01.206Z,2.03
2022-10-22T19:17:03.123Z,1.60
2022-10-22T19:20:06.251Z,1.55
2022-10-22T19:23:10.454Z,1.90
2022-10-22T19:26:18.707Z,1.40
2022-10-22T19:29:22.288Z,1.55
2022-10-22T19:32:30.217Z,1.58
2022-10-22T19:35:37.575Z,1.83
2022-10-22T19:38:45.128Z,1.70
2022-10-22T19:41:47.087Z,1.80
2022-10-22T19:44:51.952Z,1.50
2022-10-22T19:47:54.933Z,1.63
2022-10-22T19:51:08.665Z,1.50
2022-10-22T19:54:19.318Z,1.50
2022-10-22T19:57:24.450Z,1.70
2022-10-22T20:00:29.557Z,1.35
2022-10-22T20:03:36.310Z,1.60
2022-10-22T20:06:38.478Z,1.40
2022-10-22T20:09:40.287Z,1.67
2022-10-22T20:12:42.331Z,1.70
2022-10-22T20:15:48.150Z,1.77
2022-10-22T20:18:55.676Z,1.40
2022-10-22T20:24:59.044Z,1.80
2022-10-22T20:28:01.915Z,1.45
2022-10-22T20:31:12.404Z,1.65
2022-10-22T20:34:14.986Z,1.60
2022-10-22T20:37:16.959Z,1.50
2022-10-22T20:40:21.693Z,1.73
2022-10-22T20:43:24.187Z,1.58
2022-10-22T20:46:32.833Z,1.73
2022-10-22T20:49:34.657Z,2.33
2022-10-22T20:52:36.821Z,1.60
2022-10-22T20:55:38.623Z,1.95
2022-10-22T20:58:46.250Z,1.67
2022-10-22T21:01:53.054Z,1.60
2022-10-22T21:04:55.224Z,1.67
2022-10-22T21:07:58.564Z,1.50
2022-10-22T21:11:01.537Z,1.67
2022-10-22T21:14:04.665Z,1.60
2022-10-22T21:17:08.088Z,1.25
2022-10-22T21:23:13.000Z,1.50
2022-10-22T21:26:14.934Z,1.60
2022-10-22T21:29:16.512Z,1.70
2022-10-22T21:32:18.193Z,1.58
2022-10-22T21:35:20.160Z,1.42
2022-10-22T21:38:24.397Z,2.42
2022-10-22T21:41:26.366Z,1.63
2022-10-22T21:44:28.309Z,1.52
2022-10-22T21:47:30.640Z,1.58
2022-10-22T21:50:32.847Z,2.45
2022-10-22T21:53:34.717Z,2.47
2022-10-22T21:56:36.777Z,3.65
2022-10-22T21:59:38.807Z,3.03
2022-10-22T22:02:40.864Z,2.78
2022-10-22T22:05:42.905Z,1.73
2022-10-22T22:08:44.747Z,2.30
2022-10-22T22:11:47.390Z,1.95
2022-10-22T22:14:49.261Z,2.00
2022-10-22T22:17:50.912Z,2.30
2022-10-22T22:20:52.774Z,2.03
2022-10-22T22:23:54.605Z,2.00
2022-10-22T22:26:56.515Z,2.22
2022-10-22T22:29:58.260Z,2.50
2022-10-22T22:33:00.213Z,1.98
2022-10-22T22:36:02.040Z,1.98
2022-10-22T22:39:05.966Z,2.08
2022-10-22T22:42:07.836Z,3.10
2022-10-22T22:45:09.981Z,2.40
2022-10-22T22:48:11.710Z,2.10
2022-10-22T22:51:13.684Z,2.95
2022-10-22T22:54:15.446Z,2.20
2022-10-22T22:57:17.125Z,2.30
2022-10-22T23:00:19.036Z,2.22
2022-10-22T23:03:20.799Z,2.20
2022-10-22T23:06:23.310Z,2.47
2022-10-22T23:09:24.846Z,2.70
2022-10-22T23:12:26.844Z,2.35
2022-10-22T23:15:28.788Z,2.85
2022-10-22T23:18:30.635Z,2.83
2022-10-22T23:21:35.317Z,3.80
2022-10-22T23:24:37.656Z,2.30
2022-10-22T23:27:39.462Z,2.00
2022-10-22T23:30:44.663Z,2.42
2022-10-22T23:33:46.698Z,2.63
2022-10-22T23:36:48.737Z,2.28
2022-10-22T23:39:50.440Z,2.58
2022-10-22T23:42:52.199Z,2.67
2022-10-22T23:45:54.395Z,2.50
2022-10-22T23:48:56.136Z,2.50
2022-10-22T23:51:58.315Z,2.63
2022-10-22T23:55:00.008Z,2.95
2022-10-22T23:58:01.589Z,2.83
